Middle Grove, Missouri
Current Conditions -  °F | °C
As of 9:15 AM on Thursday 30 Oct 2014 (Local Time) from KHAE Reporting Station
Overcast Overcast  
Wind Chill: 40°   Ceiling: 7500
Heat Index: 45°   Visibility: 10mi
Dew Point: 36°   Wind: 8mph
Humidity: 71%   Direction: 150°SSE
Pressure: 30.1"   Gusts: NA
Location:  39.4792°N, 92.217°W
Report Text: KHAE 301415Z AUTO 15007KT 10SM SCT065 BKN075 OVC085 07/02 A3010 RMK AO2
Loading
Personal Weather Stations






























Interactive Weather Map
Tropical Storm Tracking
New forecast layout! Learn more

10-Day Weather Forecast

Advertisements
Track Severe Weather on mobile